Time;durP1;ratioP1;P1;durP2;ratioP2;P2;SDS_P1;SDS_P2;PMS_P1;PMS_P2;Temp;Humidity;BMP_temperature;BMP_pressure;BME280_temperature;BME280_humidity;BME280_pressure;Samples;Min_cycle;Max_cycle;Signal;HPM_P1;HPM_P2
2022/06/14 00:01:26;;;;;;;1.00;1.00;;;12.20;99.90;;;;;;7380950;19;20316;-82
2022/06/14 00:03:52;;;;;;;1.02;0.90;;;12.20;99.90;;;;;;7383331;19;20773;-81
2022/06/14 00:06:22;;;;;;;1.07;1.07;;;12.20;99.90;;;;;;7397014;19;20324;-81
2022/06/14 00:08:47;;;;;;;0.88;0.88;;;12.10;99.90;;;;;;7386738;19;20320;-79
2022/06/14 00:11:18;;;;;;;0.95;0.95;;;12.10;99.90;;;;;;7382173;19;20652;-79
2022/06/14 00:13:44;;;;;;;1.50;1.02;;;12.10;99.90;;;;;;7383296;19;20359;-79
2022/06/14 00:16:10;;;;;;;1.00;1.00;;;12.10;99.90;;;;;;7380468;19;21173;-79
2022/06/14 00:18:36;;;;;;;0.93;0.93;;;11.90;99.90;;;;;;7381254;19;20308;-79
2022/06/14 00:21:01;;;;;;;0.90;0.83;;;11.90;99.90;;;;;;7381437;19;20319;-79
2022/06/14 00:23:27;;;;;;;1.13;1.00;;;11.90;99.90;;;;;;7382155;19;21197;-84
2022/06/14 00:25:54;;;;;;;1.07;1.00;;;11.80;99.90;;;;;;7380763;19;20312;-80
2022/06/14 00:28:20;;;;;;;1.20;0.95;;;11.80;99.90;;;;;;7381588;19;20928;-79
2022/06/14 00:30:47;;;;;;;1.10;1.00;;;11.80;99.90;;;;;;7381393;19;20430;-82
2022/06/14 00:33:13;;;;;;;0.70;0.70;;;11.80;99.90;;;;;;7381875;19;20339;-80
2022/06/14 00:35:38;;;;;;;1.00;1.00;;;11.80;99.90;;;;;;7401439;19;20414;-80
2022/06/14 00:38:04;;;;;;;1.10;0.90;;;11.80;99.90;;;;;;7391191;19;20332;-82
2022/06/14 00:40:35;;;;;;;1.03;1.03;;;11.90;99.90;;;;;;7386774;19;20317;-80
2022/06/14 00:43:02;;;;;;;0.80;0.80;;;11.90;99.90;;;;;;7385683;19;20391;-82
2022/06/14 00:45:28;;;;;;;0.85;0.85;;;11.80;99.90;;;;;;7382281;19;21052;-82
2022/06/14 00:47:56;;;;;;;1.00;1.00;;;11.80;99.90;;;;;;7383631;19;20336;-80
2022/06/14 00:50:26;;;;;;;0.90;0.90;;;11.80;99.90;;;;;;7380819;19;20312;-79
2022/06/14 00:52:59;;;;;;;1.02;1.02;;;11.80;99.90;;;;;;7382424;19;20305;-79
2022/06/14 00:55:29;;;;;;;2.60;1.10;;;11.70;99.90;;;;;;7380904;19;20305;-82
2022/06/14 00:58:02;;;;;;;0.90;0.90;;;11.70;99.90;;;;;;7382240;19;20682;-79
2022/06/14 01:00:30;;;;;;;1.27;1.17;;;11.60;99.90;;;;;;7379441;19;20341;-83
2022/06/14 01:02:57;;;;;;;1.30;0.97;;;11.50;99.90;;;;;;7382971;19;20380;-86
2022/06/14 01:06:05;;;;;;;1.05;1.02;;;11.60;99.90;;;;;;7394317;19;20305;-80
2022/06/14 01:08:16;;;;;;;1.20;1.10;;;11.50;99.90;;;;;;7284352;19;2004847;-80
2022/06/14 01:10:47;;;;;;;1.00;1.00;;;11.50;99.90;;;;;;7382065;19;20359;-86
2022/06/14 01:13:13;;;;;;;0.90;0.90;;;11.50;99.90;;;;;;7386145;19;20344;-83
2022/06/14 01:15:38;;;;;;;1.38;1.02;;;11.50;99.90;;;;;;7388265;19;20331;-82
2022/06/14 01:18:07;;;;;;;1.40;1.10;;;11.50;99.90;;;;;;7388588;19;20336;-80
2022/06/14 01:20:33;;;;;;;1.00;1.00;;;11.50;99.90;;;;;;7385902;19;20329;-82
2022/06/14 01:23:00;;;;;;;1.05;1.02;;;11.50;99.90;;;;;;7345720;19;20327;-83
2022/06/14 01:25:26;;;;;;;1.00;1.00;;;11.50;99.90;;;;;;7385891;19;20847;-79
2022/06/14 01:27:51;;;;;;;1.20;1.10;;;11.40;99.90;;;;;;7388062;19;20348;-81
2022/06/14 01:30:26;;;;;;;2.30;0.90;;;11.30;99.90;;;;;;7385726;19;20317;-80
2022/06/14 01:32:53;;;;;;;1.67;1.10;;;11.20;99.90;;;;;;7391603;19;20326;-85
2022/06/14 01:35:21;;;;;;;1.30;1.00;;;11.30;99.90;;;;;;7390564;19;20321;-82
2022/06/14 01:37:49;;;;;;;1.20;1.00;;;11.10;99.90;;;;;;7386243;19;20388;-80
2022/06/14 01:40:14;;;;;;;0.80;0.80;;;11.10;99.90;;;;;;7385483;19;20316;-80
2022/06/14 01:43:03;;;;;;;1.00;1.00;;;11.00;99.90;;;;;;7382295;19;20304;-85
2022/06/14 01:45:35;;;;;;;1.05;1.00;;;11.10;99.90;;;;;;7383766;19;20319;-80
2022/06/14 01:48:13;;;;;;;1.00;0.90;;;11.00;99.90;;;;;;7384866;19;20383;-80
2022/06/14 01:53:41;;;;;;;1.20;1.02;;;11.10;99.90;;;;;;7387101;19;20285;-80
2022/06/14 01:56:17;;;;;;;1.10;1.00;;;11.00;99.90;;;;;;7281432;19;2004393;-83
2022/06/14 01:59:09;;;;;;;1.50;1.10;;;11.00;99.90;;;;;;7385149;19;20305;-80
2022/06/14 02:01:45;;;;;;;1.08;1.00;;;11.10;99.90;;;;;;7283371;19;2004443;-81
2022/06/14 02:04:37;;;;;;;1.50;1.10;;;11.00;99.90;;;;;;7391879;19;20301;-80
2022/06/14 02:07:16;;;;;;;1.60;1.00;;;11.00;99.90;;;;;;7387486;19;20334;-80
2022/06/14 02:10:00;;;;;;;1.08;1.08;;;10.90;99.90;;;;;;7283307;19;2004513;-83
2022/06/14 02:12:37;;;;;;;1.00;0.90;;;10.90;99.90;;;;;;7387369;19;20896;-80
2022/06/14 02:15:28;;;;;;;1.20;1.00;;;10.90;99.90;;;;;;7384865;19;20861;-83
2022/06/14 02:18:11;;;;;;;0.90;0.90;;;10.90;99.90;;;;;;7281554;19;2004506;-80
2022/06/14 02:20:47;;;;;;;1.00;1.00;;;10.80;99.90;;;;;;7280161;19;2004216;-79
2022/06/14 02:23:13;;;;;;;1.00;1.00;;;10.70;99.90;;;;;;7385321;19;20324;-80
2022/06/14 02:25:55;;;;;;;1.25;1.00;;;10.60;99.90;;;;;;7389723;19;20388;-80
2022/06/14 02:28:24;;;;;;;1.30;1.20;;;10.60;99.90;;;;;;7388054;19;20316;-80
2022/06/14 02:30:55;;;;;;;1.13;1.05;;;10.60;99.90;;;;;;7383662;19;20342;-80
2022/06/14 02:33:33;;;;;;;1.00;1.00;;;10.60;99.90;;;;;;7387121;19;20368;-80
2022/06/14 02:36:08;;;;;;;1.13;0.90;;;10.60;99.90;;;;;;7382964;19;20656;-81
2022/06/14 02:39:13;;;;;;;1.20;1.10;;;10.50;99.90;;;;;;7385313;19;20345;-80
2022/06/14 02:41:54;;;;;;;1.20;1.10;;;10.50;99.90;;;;;;7180090;19;2004387;-80
2022/06/14 02:44:26;;;;;;;1.40;1.30;;;10.50;99.90;;;;;;7388237;19;20307;-79
2022/06/14 02:47:04;;;;;;;1.10;1.10;;;10.40;99.90;;;;;;7390195;19;20413;-79
2022/06/14 02:49:39;;;;;;;1.20;1.10;;;10.40;99.90;;;;;;7386371;19;20306;-80
2022/06/14 02:52:29;;;;;;;1.10;1.10;;;10.50;99.90;;;;;;7282698;19;2005029;-83
2022/06/14 02:55:07;;;;;;;1.50;1.38;;;10.40;99.90;;;;;;7386530;19;20944;-79
2022/06/14 02:57:46;;;;;;;2.23;1.30;;;10.40;99.90;;;;;;7384364;19;20368;-79
2022/06/14 03:00:21;;;;;;;1.20;1.10;;;10.40;99.90;;;;;;7283488;19;2005747;-79
2022/06/14 03:03:00;;;;;;;1.08;1.08;;;10.50;99.90;;;;;;7389621;19;20787;-85
2022/06/14 03:05:39;;;;;;;1.27;1.17;;;10.60;99.90;;;;;;7382970;19;20380;-80
2022/06/14 03:08:20;;;;;;;1.98;1.30;;;10.50;99.90;;;;;;7280313;19;2004378;-79
2022/06/14 03:11:13;;;;;;;1.00;1.00;;;10.50;99.90;;;;;;7382296;19;20321;-82
2022/06/14 03:14:18;;;;;;;2.23;1.20;;;10.50;99.90;;;;;;7271993;19;2004539;-83
2022/06/14 03:17:09;;;;;;;1.63;1.27;;;10.50;99.90;;;;;;7282124;19;2004221;-81
2022/06/14 03:19:53;;;;;;;2.22;1.15;;;10.50;99.90;;;;;;7282447;19;2004326;-81
2022/06/14 03:22:42;;;;;;;2.25;1.45;;;10.40;99.90;;;;;;7385673;19;20320;-79
2022/06/14 03:25:44;;;;;;;1.27;1.20;;;10.40;99.90;;;;;;7283627;19;2004425;-80
2022/06/14 03:28:27;;;;;;;1.95;1.40;;;10.30;99.90;;;;;;7285344;19;2004553;-79
2022/06/14 03:31:01;;;;;;;1.67;1.30;;;10.30;99.90;;;;;;7385305;19;20309;-79
2022/06/14 03:33:37;;;;;;;1.48;1.27;;;10.30;99.90;;;;;;7385516;19;20321;-79
2022/06/14 03:36:03;;;;;;;1.30;1.20;;;10.40;99.90;;;;;;7383409;19;20849;-80
2022/06/14 03:38:39;;;;;;;1.97;1.30;;;10.40;99.90;;;;;;7385214;19;20324;-80
2022/06/14 03:41:06;;;;;;;1.42;1.33;;;10.40;99.90;;;;;;7283385;19;2004627;-80
2022/06/14 03:43:32;;;;;;;3.20;1.50;;;10.50;99.90;;;;;;7384932;19;20313;-80
2022/06/14 03:46:03;;;;;;;2.05;1.42;;;10.60;99.90;;;;;;7381787;19;20384;-80
2022/06/14 03:48:30;;;;;;;1.65;1.40;;;10.60;99.90;;;;;;7383383;19;20333;-80
2022/06/14 03:51:03;;;;;;;1.50;1.40;;;10.70;99.90;;;;;;7381577;19;20776;-80
2022/06/14 03:54:07;;;;;;;4.78;1.27;;;10.80;99.90;;;;;;7381130;19;20341;-81
2022/06/14 03:56:44;;;;;;;1.42;1.20;;;10.90;99.90;;;;;;7176566;19;2004504;-83
2022/06/14 03:59:26;;;;;;;1.83;1.30;;;11.10;99.90;;;;;;7281118;19;2004530;-79
2022/06/14 04:01:57;;;;;;;2.07;1.33;;;11.00;99.90;;;;;;7364901;19;20323;-80
2022/06/14 04:04:34;;;;;;;2.85;1.40;;;11.10;99.90;;;;;;7384163;19;20316;-80
2022/06/14 04:07:10;;;;;;;1.50;1.38;;;11.20;99.90;;;;;;7382814;19;20323;-81
2022/06/14 04:09:39;;;;;;;1.40;1.20;;;11.20;99.90;;;;;;7278927;19;2004564;-85
2022/06/14 04:12:08;;;;;;;2.10;1.58;;;11.20;99.90;;;;;;7382463;19;20311;-79
2022/06/14 04:15:02;;;;;;;1.65;1.27;;;11.20;99.90;;;;;;7381947;19;20299;-79
2022/06/14 04:17:48;;;;;;;1.77;1.50;;;11.20;99.90;;;;;;7279518;19;2004150;-79
2022/06/14 04:20:21;;;;;;;3.42;1.13;;;11.20;99.90;;;;;;7280224;19;2004416;-79
2022/06/14 04:22:58;;;;;;;3.13;1.25;;;11.30;99.90;;;;;;7382061;19;20317;-79
2022/06/14 04:25:40;;;;;;;1.77;1.67;;;11.30;99.90;;;;;;7385832;19;20693;-79
2022/06/14 04:28:15;;;;;;;2.90;1.38;;;11.20;99.90;;;;;;7279428;19;2004523;-80
2022/06/14 04:31:02;;;;;;;1.77;1.37;;;11.10;99.90;;;;;;7382811;19;20331;-80
2022/06/14 04:33:48;;;;;;;1.90;1.42;;;11.10;99.90;;;;;;7381268;19;20317;-83
2022/06/14 04:36:17;;;;;;;1.30;1.20;;;11.20;99.90;;;;;;7276196;19;2004389;-79
2022/06/14 04:38:50;;;;;;;1.20;1.10;;;11.30;99.90;;;;;;7380489;19;20304;-79
2022/06/14 04:41:19;;;;;;;2.80;1.52;;;11.40;99.90;;;;;;7380282;19;20324;-81
2022/06/14 04:43:49;;;;;;;2.45;1.40;;;11.50;99.90;;;;;;7380376;19;20350;-81
2022/06/14 04:46:16;;;;;;;3.55;1.50;;;11.70;99.90;;;;;;7382428;19;20339;-80
2022/06/14 04:48:52;;;;;;;1.75;1.30;;;11.80;99.90;;;;;;7386145;19;20304;-85
2022/06/14 04:51:34;;;;;;;1.58;1.25;;;11.80;99.90;;;;;;7388008;19;20309;-82
2022/06/14 04:54:11;;;;;;;1.75;1.45;;;11.90;99.90;;;;;;7388161;19;20304;-80
2022/06/14 04:56:44;;;;;;;1.98;1.30;;;12.00;99.90;;;;;;7285033;19;2004682;-81
2022/06/14 04:59:37;;;;;;;2.27;1.40;;;12.20;99.90;;;;;;7389599;19;20329;-81
2022/06/14 05:02:24;;;;;;;2.42;1.40;;;12.30;99.90;;;;;;7393709;19;20407;-83
2022/06/14 05:04:58;;;;;;;1.60;1.43;;;12.40;99.90;;;;;;7289470;19;2004386;-84
2022/06/14 05:07:27;;;;;;;1.73;1.40;;;12.60;99.90;;;;;;7392005;19;20400;-81
2022/06/14 05:10:06;;;;;;;2.97;1.60;;;12.70;99.90;;;;;;7389990;19;20296;-85
2022/06/14 05:13:00;;;;;;;2.47;1.60;;;12.90;99.90;;;;;;7389210;19;20328;-83
2022/06/14 05:15:34;;;;;;;2.22;1.70;;;13.00;99.90;;;;;;7282800;19;2004672;-86
2022/06/14 05:18:03;;;;;;;1.85;1.50;;;13.10;99.90;;;;;;7386575;19;20313;-79
2022/06/14 05:20:51;;;;;;;2.80;1.77;;;13.30;99.90;;;;;;7387410;19;20856;-86
2022/06/14 05:23:21;;;;;;;2.33;1.63;;;13.40;99.90;;;;;;7284601;19;2004349;-84
2022/06/14 05:25:58;;;;;;;2.63;1.43;;;13.50;99.90;;;;;;7386442;19;20344;-83
2022/06/14 05:28:48;;;;;;;2.17;1.60;;;13.70;99.90;;;;;;7384055;19;20316;-80
2022/06/14 05:31:40;;;;;;;1.60;1.50;;;13.70;99.90;;;;;;7282372;19;2004705;-80
2022/06/14 05:34:15;;;;;;;2.08;1.50;;;13.90;99.90;;;;;;7284307;19;2004414;-81
2022/06/14 05:36:46;;;;;;;3.80;1.67;;;14.10;99.90;;;;;;7387451;19;20305;-83
2022/06/14 05:39:48;;;;;;;4.57;1.50;;;14.20;99.90;;;;;;7390729;19;20677;-88
2022/06/14 05:42:18;;;;;;;1.85;1.63;;;14.40;99.90;;;;;;7290190;19;2004423;-86
2022/06/14 05:44:45;;;;;;;2.05;1.42;;;14.70;99.90;;;;;;7392975;19;20320;-84
2022/06/14 05:47:21;;;;;;;2.30;1.55;;;14.70;99.90;;;;;;7389949;19;20333;-80
2022/06/14 05:49:55;;;;;;;2.47;1.60;;;14.90;99.90;;;;;;7389714;19;20433;-80
2022/06/14 05:52:31;;;;;;;2.65;1.58;;;15.20;99.90;;;;;;7388568;19;20443;-83
2022/06/14 05:55:14;;;;;;;1.58;1.45;;;15.30;99.90;;;;;;7391854;19;20944;-82
2022/06/14 05:57:46;;;;;;;2.95;1.40;;;15.00;99.90;;;;;;7299108;19;2004540;-84
2022/06/14 06:00:12;;;;;;;2.40;1.35;;;15.20;99.90;;;;;;7398127;19;20312;-83
2022/06/14 06:02:39;;;;;;;1.60;1.30;;;15.30;99.90;;;;;;7394919;19;20312;-82
2022/06/14 06:05:20;;;;;;;2.00;1.40;;;15.20;99.90;;;;;;7393970;19;20309;-86
2022/06/14 06:07:56;;;;;;;2.60;1.70;;;15.20;99.90;;;;;;7288907;19;2004365;-81
2022/06/14 06:10:25;;;;;;;2.88;1.30;;;15.30;99.90;;;;;;7389016;19;20321;-79
2022/06/14 06:12:57;;;;;;;1.52;1.38;;;15.50;99.90;;;;;;7391737;19;20328;-82
2022/06/14 06:15:28;;;;;;;2.47;1.30;;;15.50;99.90;;;;;;7390605;19;20324;-80
2022/06/14 06:18:00;;;;;;;1.60;1.20;;;15.50;99.90;;;;;;7389751;19;20334;-81
2022/06/14 06:20:28;;;;;;;5.50;1.40;;;15.50;99.90;;;;;;7390850;19;20336;-84
2022/06/14 06:23:14;;;;;;;1.77;1.40;;;15.40;99.90;;;;;;7392255;19;20324;-81
2022/06/14 06:25:45;;;;;;;3.60;1.50;;;15.20;99.90;;;;;;7289078;19;2004735;-82
2022/06/14 06:28:21;;;;;;;1.63;1.30;;;15.50;99.90;;;;;;7395116;19;20436;-82
2022/06/14 06:30:56;;;;;;;3.10;1.40;;;15.60;99.90;;;;;;7389422;19;20316;-81
2022/06/14 06:33:22;;;;;;;3.23;1.60;;;15.80;99.90;;;;;;7391673;19;20889;-82
2022/06/14 06:35:57;;;;;;;2.17;1.13;;;15.90;99.90;;;;;;7396547;19;20317;-81
2022/06/14 06:38:27;;;;;;;1.92;1.33;;;16.00;99.90;;;;;;7397978;19;20364;-82
2022/06/14 06:43:46;;;;;;;2.77;1.40;;;16.30;99.90;;;;;;7290274;19;2004544;-84
2022/06/14 06:46:12;;;;;;;1.35;1.20;;;16.40;99.90;;;;;;7387655;19;20343;-85
2022/06/14 06:48:43;;;;;;;2.70;1.10;;;16.00;99.90;;;;;;7388985;19;20313;-86
2022/06/14 06:51:10;;;;;;;2.15;1.52;;;16.20;99.90;;;;;;7390388;19;20653;-80
2022/06/14 06:53:41;;;;;;;3.30;1.42;;;16.10;99.90;;;;;;7390542;19;20333;-84
2022/06/14 06:56:14;;;;;;;1.13;1.00;;;16.20;99.90;;;;;;7274947;19;2004532;-84
2022/06/14 06:58:59;;;;;;;1.67;1.20;;;16.10;99.90;;;;;;7396117;19;20324;-82
2022/06/14 07:01:33;;;;;;;2.57;1.77;;;16.30;99.90;;;;;;7391618;19;20341;-83
2022/06/14 07:04:07;;;;;;;6.15;1.25;;;16.60;99.90;;;;;;7390555;19;20316;-86
2022/06/14 07:06:37;;;;;;;1.10;1.00;;;16.70;99.90;;;;;;7389354;19;20305;-86
2022/06/14 07:09:13;;;;;;;2.20;1.10;;;16.90;99.90;;;;;;7391367;19;20301;-82
2022/06/14 07:11:46;;;;;;;1.85;1.33;;;16.80;99.90;;;;;;7265410;19;2004414;-78
2022/06/14 07:14:13;;;;;;;2.30;1.20;;;16.70;99.90;;;;;;7385088;19;20881;-78
2022/06/14 07:17:03;;;;;;;2.53;1.20;;;16.80;99.90;;;;;;7384581;19;20359;-81
2022/06/14 07:19:41;;;;;;;2.75;1.17;;;16.80;99.90;;;;;;7385332;19;21018;-78
2022/06/14 07:22:17;;;;;;;4.00;1.30;;;17.10;99.90;;;;;;7385139;19;20332;-78
2022/06/14 07:24:56;;;;;;;4.25;1.50;;;17.40;99.90;;;;;;7288463;19;2004440;-79
2022/06/14 07:27:24;;;;;;;1.77;1.27;;;17.40;99.90;;;;;;7391283;19;20344;-78
2022/06/14 07:29:58;;;;;;;2.47;1.40;;;17.40;99.90;;;;;;7388765;19;20366;-77
2022/06/14 07:32:30;;;;;;;1.27;1.02;;;17.70;99.90;;;;;;7389643;19;20345;-78
2022/06/14 07:34:55;;;;;;;1.40;1.20;;;17.50;99.90;;;;;;7392028;19;20347;-77
2022/06/14 07:37:43;;;;;;;4.18;1.33;;;17.80;99.90;;;;;;7385190;19;20903;-79
2022/06/14 07:40:19;;;;;;;2.40;1.17;;;18.20;99.90;;;;;;7284888;19;2004507;-78
2022/06/14 07:42:52;;;;;;;1.77;1.30;;;18.30;99.90;;;;;;7387859;19;20328;-81
2022/06/14 07:45:26;;;;;;;1.17;1.10;;;18.60;99.90;;;;;;7386215;19;20376;-80
2022/06/14 07:48:00;;;;;;;2.38;1.20;;;18.60;99.90;;;;;;7388611;19;20344;-80
2022/06/14 07:50:28;;;;;;;3.03;1.27;;;18.40;99.90;;;;;;7384078;19;20332;-83
2022/06/14 07:53:33;;;;;;;1.13;1.02;;;18.50;99.90;;;;;;7382633;19;20888;-79
2022/06/14 07:56:10;;;;;;;1.95;1.10;;;18.20;99.80;;;;;;7292841;19;2004475;-79
2022/06/14 07:58:58;;;;;;;1.23;1.10;;;17.90;99.10;;;;;;7392807;19;20304;-82
2022/06/14 08:01:37;;;;;;;1.70;1.30;;;17.80;99.10;;;;;;7287408;19;2004691;-79
2022/06/14 08:04:13;;;;;;;1.45;1.10;;;18.20;99.90;;;;;;7396237;19;21190;-79
2022/06/14 08:06:47;;;;;;;1.42;1.20;;;18.80;99.90;;;;;;7279195;19;2004155;-81
2022/06/14 08:09:19;;;;;;;1.50;0.93;;;18.90;97.40;;;;;;7387401;19;20371;-79
2022/06/14 08:11:56;;;;;;;3.67;1.27;;;18.60;96.60;;;;;;7396161;19;20365;-79
2022/06/14 08:14:26;;;;;;;1.73;1.30;;;18.50;97.10;;;;;;7394650;19;20357;-81
2022/06/14 08:16:52;;;;;;;1.52;1.20;;;18.70;97.60;;;;;;7387269;19;20346;-79
2022/06/14 08:19:20;;;;;;;2.05;1.30;;;18.40;95.50;;;;;;7381792;19;20348;-83
2022/06/14 08:21:48;;;;;;;1.63;1.20;;;18.60;95.70;;;;;;7387169;19;20329;-81
2022/06/14 08:24:21;;;;;;;2.67;1.17;;;18.60;95.20;;;;;;7393301;19;20428;-82
2022/06/14 08:27:04;;;;;;;1.60;1.13;;;18.50;95.30;;;;;;7393189;19;20322;-82
2022/06/14 08:29:46;;;;;;;2.08;1.30;;;18.80;95.90;;;;;;7396402;19;20861;-80
2022/06/14 08:32:16;;;;;;;3.20;1.42;;;19.40;96.20;;;;;;7286660;19;2004181;-81
2022/06/14 08:34:47;;;;;;;1.58;1.20;;;19.50;95.00;;;;;;7397974;19;20300;-81
2022/06/14 08:37:20;;;;;;;2.00;1.27;;;19.40;96.00;;;;;;7397025;19;20374;-87
2022/06/14 08:39:48;;;;;;;1.67;1.20;;;19.20;94.60;;;;;;7395839;19;20319;-82
2022/06/14 08:42:33;;;;;;;1.20;1.10;;;19.40;93.30;;;;;;7392883;19;20337;-82
2022/06/14 08:45:09;;;;;;;2.13;1.20;;;19.40;94.50;;;;;;7395334;19;20321;-80
2022/06/14 08:47:57;;;;;;;1.23;1.13;;;19.80;91.90;;;;;;7400012;19;20320;-85
2022/06/14 08:50:29;;;;;;;2.17;1.33;;;20.00;93.50;;;;;;7294521;19;2004507;-85
2022/06/14 08:53:13;;;;;;;2.70;1.50;;;20.30;93.90;;;;;;7399820;19;20304;-86
2022/06/14 08:55:55;;;;;;;1.20;1.10;;;20.20;92.60;;;;;;7301030;19;2004470;-86
2022/06/14 08:58:39;;;;;;;1.67;1.00;;;20.40;93.50;;;;;;7401686;19;20347;-85
2022/06/14 09:01:44;;;;;;;1.00;0.90;;;20.80;91.90;;;;;;7401665;19;21081;-86
2022/06/14 09:04:48;;;;;;;1.20;1.10;;;20.70;88.50;;;;;;7193782;19;2004754;-89
2022/06/14 09:07:22;;;;;;;1.37;1.10;;;21.30;91.70;;;;;;7292876;19;2005936;-84
2022/06/14 09:09:53;;;;;;;1.98;1.30;;;20.80;85.60;;;;;;7398467;19;20316;-87
2022/06/14 09:12:42;;;;;;;1.55;1.20;;;19.80;86.50;;;;;;7394058;19;20358;-83
2022/06/14 09:15:40;;;;;;;1.27;1.15;;;19.70;91.50;;;;;;7395763;19;20358;-82
2022/06/14 09:18:20;;;;;;;2.75;1.20;;;20.10;91.90;;;;;;7291692;19;2004409;-82
2022/06/14 09:21:07;;;;;;;1.65;1.20;;;20.60;90.30;;;;;;7294557;19;2004448;-88
2022/06/14 09:23:48;;;;;;;2.88;1.50;;;21.10;89.00;;;;;;7403920;19;20322;-90
2022/06/14 09:26:29;;;;;;;2.67;1.00;;;20.90;90.00;;;;;;7296707;19;2004353;-86
2022/06/14 09:29:26;;;;;;;1.47;1.13;;;21.10;87.10;;;;;;7398922;19;20337;-84
2022/06/14 09:32:10;;;;;;;2.53;1.30;;;20.90;85.80;;;;;;7297090;19;2004214;-82
2022/06/14 09:35:11;;;;;;;1.20;1.10;;;20.80;86.30;;;;;;7409069;19;20360;-86
2022/06/14 09:37:45;;;;;;;2.40;1.20;;;20.90;89.40;;;;;;7201522;19;2004604;-82
2022/06/14 09:40:36;;;;;;;3.53;1.20;;;21.10;88.60;;;;;;7302290;19;2004374;-87
2022/06/14 09:43:15;;;;;;;2.30;1.25;;;21.10;87.50;;;;;;7407209;19;20344;-88
2022/06/14 09:46:06;;;;;;;1.55;1.20;;;21.60;83.40;;;;;;7303600;19;2004460;-84
2022/06/14 09:48:43;;;;;;;1.20;1.00;;;22.30;86.70;;;;;;7406424;19;20350;-83
2022/06/14 09:51:22;;;;;;;1.20;1.10;;;22.20;81.40;;;;;;7303119;19;2004380;-86
2022/06/14 09:54:05;;;;;;;1.73;1.13;;;22.30;81.40;;;;;;7410573;19;20346;-89
2022/06/14 09:56:53;;;;;;;1.85;1.20;;;21.90;81.40;;;;;;7409121;19;20367;-87
2022/06/14 09:59:50;;;;;;;1.83;1.40;;;20.70;81.10;;;;;;7303654;19;2004421;-85
2022/06/14 10:02:33;;;;;;;2.23;1.20;;;21.40;81.90;;;;;;7302973;19;2003996;-88
2022/06/14 10:05:23;;;;;;;2.05;1.25;;;21.80;82.30;;;;;;7405446;19;20384;-85
2022/06/14 10:08:04;;;;;;;1.92;1.20;;;21.90;82.20;;;;;;7305191;19;2004154;-90
2022/06/14 10:10:32;;;;;;;1.30;1.10;;;22.10;79.70;;;;;;7415277;19;20334;-85
2022/06/14 10:13:16;;;;;;;1.20;1.10;;;22.10;79.10;;;;;;7413872;19;20317;-86
2022/06/14 10:16:04;;;;;;;3.00;1.10;;;22.30;82.30;;;;;;7305866;19;2004613;-85
2022/06/14 10:18:52;;;;;;;2.00;1.30;;;22.10;80.80;;;;;;7407208;19;20316;-85
2022/06/14 10:21:25;;;;;;;1.43;1.33;;;22.10;77.50;;;;;;7305156;19;2004192;-86
2022/06/14 10:24:07;;;;;;;1.20;1.10;;;22.40;78.70;;;;;;7406910;19;20313;-86
2022/06/14 10:30:08;;;;;;;1.45;1.17;;;21.40;79.50;;;;;;7195691;19;2004561;-82
2022/06/14 10:33:05;;;;;;;3.17;1.47;;;21.40;81.20;;;;;;7394031;19;20352;-81
2022/06/14 10:36:15;;;;;;;1.25;1.15;;;21.40;80.00;;;;;;7294851;19;2004372;-82
2022/06/14 10:38:58;;;;;;;1.67;1.20;;;21.60;80.70;;;;;;7186134;19;2004781;-81
2022/06/14 10:41:52;;;;;;;2.53;1.25;;;22.30;81.80;;;;;;7400051;19;20349;-82
2022/06/14 10:44:25;;;;;;;1.80;1.20;;;22.60;76.90;;;;;;7293464;19;2004525;-78
2022/06/14 10:47:16;;;;;;;2.15;1.20;;;22.50;76.40;;;;;;7400777;19;20305;-80
2022/06/14 10:50:10;;;;;;;1.88;1.40;;;22.30;77.60;;;;;;7288478;19;2004565;-83
2022/06/14 10:52:54;;;;;;;3.00;1.13;;;22.20;76.50;;;;;;7395663;19;20317;-81
2022/06/14 10:55:26;;;;;;;1.33;1.10;;;22.50;77.90;;;;;;7297243;19;2004482;-84
2022/06/14 10:58:06;;;;;;;1.50;1.30;;;22.30;76.20;;;;;;7399736;19;20324;-82
2022/06/14 11:00:51;;;;;;;1.75;1.40;;;23.20;78.80;;;;;;7400853;19;20333;-81
2022/06/14 11:03:36;;;;;;;2.17;1.10;;;23.50;74.80;;;;;;7296694;19;2004417;-83
2022/06/14 11:06:04;;;;;;;1.40;1.10;;;22.60;74.50;;;;;;7392139;19;20341;-84
2022/06/14 11:08:49;;;;;;;1.45;1.17;;;22.40;73.30;;;;;;7392606;19;20385;-82
2022/06/14 11:11:47;;;;;;;1.77;1.00;;;22.60;76.00;;;;;;7291170;19;2004456;-80
2022/06/14 11:14:25;;;;;;;1.83;1.20;;;22.50;73.50;;;;;;7296046;19;2004384;-83
2022/06/14 11:17:09;;;;;;;1.45;1.00;;;22.10;72.40;;;;;;7396915;19;20328;-84
2022/06/14 11:19:42;;;;;;;1.20;1.10;;;22.20;73.80;;;;;;7394302;19;20399;-84
2022/06/14 11:22:35;;;;;;;2.00;1.15;;;20.30;71.70;;;;;;7407454;19;20715;-82
2022/06/14 11:25:19;;;;;;;1.65;1.15;;;21.20;76.70;;;;;;7301067;19;2004473;-85
2022/06/14 11:28:23;;;;;;;2.17;1.27;;;21.50;75.60;;;;;;7297132;19;2004641;-79
2022/06/14 11:30:56;;;;;;;2.03;1.10;;;21.60;74.60;;;;;;7290122;19;2004386;-80
2022/06/14 11:33:45;;;;;;;1.45;1.17;;;22.00;74.30;;;;;;7387371;19;20344;-80
2022/06/14 11:36:50;;;;;;;0.90;0.90;;;22.30;75.60;;;;;;7399245;19;20345;-86
2022/06/14 11:39:27;;;;;;;1.10;1.08;;;22.30;75.10;;;;;;7198192;19;2004492;-85
2022/06/14 11:41:53;;;;;;;2.20;1.30;;;22.50;73.70;;;;;;7403918;19;20321;-89
2022/06/14 11:44:37;;;;;;;1.25;1.10;;;22.90;73.40;;;;;;7406611;19;20332;-85
2022/06/14 11:47:18;;;;;;;2.08;1.17;;;22.70;72.10;;;;;;7404171;19;20320;-83
2022/06/14 11:49:54;;;;;;;1.30;1.17;;;22.50;73.10;;;;;;7302872;19;2004515;-87
2022/06/14 11:52:42;;;;;;;1.20;1.10;;;23.50;73.20;;;;;;7404346;19;20329;-83
2022/06/14 11:55:39;;;;;;;2.38;1.38;;;24.30;73.60;;;;;;7402515;19;20372;-86
2022/06/14 11:58:35;;;;;;;1.65;1.10;;;24.10;66.50;;;;;;7304125;19;2004594;-90
2022/06/14 12:01:20;;;;;;;1.30;1.20;;;23.90;68.40;;;;;;7301496;19;2004421;-84
2022/06/14 12:04:01;;;;;;;1.05;0.95;;;22.50;69.70;;;;;;7302843;19;2004486;-87
2022/06/14 12:06:26;;;;;;;1.60;1.10;;;23.00;72.30;;;;;;7402901;19;20341;-82
2022/06/14 12:09:22;;;;;;;0.90;0.90;;;23.10;70.90;;;;;;7404150;19;20328;-87
2022/06/14 12:12:01;;;;;;;2.30;1.20;;;23.40;71.60;;;;;;7300508;19;2004342;-85
2022/06/14 12:14:32;;;;;;;2.57;1.20;;;24.20;68.80;;;;;;7400073;19;20336;-87
2022/06/14 12:17:20;;;;;;;1.58;1.15;;;24.70;70.30;;;;;;7405897;19;20433;-88
2022/06/14 12:20:20;;;;;;;1.40;0.97;;;25.20;66.40;;;;;;7299983;19;2003953;-86
2022/06/14 12:23:01;;;;;;;1.17;1.08;;;24.80;68.40;;;;;;7292596;19;2004569;-84
2022/06/14 12:28:34;;;;;;;4.07;1.27;;;25.40;65.80;;;;;;7293855;19;2004525;-83
2022/06/14 12:31:28;;;;;;;2.63;1.23;;;25.60;64.70;;;;;;7397084;19;20963;-82
2022/06/14 12:33:59;;;;;;;1.55;1.08;;;24.60;63.00;;;;;;7297382;19;2004641;-89
2022/06/14 12:36:34;;;;;;;4.03;1.20;;;25.40;72.10;;;;;;7402674;19;20333;-86
2022/06/14 12:39:03;;;;;;;2.65;1.13;;;26.50;66.50;;;;;;7402816;19;20318;-88
2022/06/14 12:41:34;;;;;;;1.80;0.90;;;25.20;59.30;;;;;;7397270;19;20385;-81
2022/06/14 12:44:15;;;;;;;1.00;1.00;;;26.10;64.70;;;;;;7404928;19;20358;-88
2022/06/14 12:46:42;;;;;;;2.92;0.90;;;26.20;61.80;;;;;;7403810;19;20336;-87
2022/06/14 12:49:29;;;;;;;2.70;0.90;;;26.10;60.90;;;;;;7400763;19;20360;-86
2022/06/14 12:51:58;;;;;;;2.43;1.30;;;26.10;61.40;;;;;;7293011;19;2004240;-83
2022/06/14 12:55:12;;;;;;;3.95;1.38;;;26.50;67.10;;;;;;7398723;19;20313;-86
2022/06/14 12:58:07;;;;;;;2.00;1.10;;;27.00;60.70;;;;;;7306698;19;2003961;-89
2022/06/14 13:00:45;;;;;;;2.40;1.10;;;25.50;59.10;;;;;;7302478;19;2004319;-89
2022/06/14 13:03:26;;;;;;;1.50;1.13;;;25.30;60.20;;;;;;7408075;19;20340;-90
2022/06/14 13:05:58;;;;;;;1.83;0.93;;;25.50;61.90;;;;;;7303989;19;2004343;-88
2022/06/14 13:08:42;;;;;;;2.85;1.58;;;26.30;61.50;;;;;;7410694;19;20356;-87
2022/06/14 13:11:11;;;;;;;2.25;1.05;;;27.00;59.70;;;;;;7406501;19;20324;-84
2022/06/14 13:14:07;;;;;;;1.35;1.00;;;26.40;59.90;;;;;;7412137;19;20308;-84
2022/06/14 13:16:45;;;;;;;1.23;0.90;;;26.50;59.70;;;;;;7307865;19;2004687;-87
2022/06/14 13:19:17;;;;;;;1.35;1.15;;;26.50;57.20;;;;;;7406088;19;20332;-89
2022/06/14 13:22:18;;;;;;;1.90;1.05;;;27.00;59.90;;;;;;7410834;19;20301;-84
2022/06/14 13:25:09;;;;;;;1.35;1.02;;;26.60;57.20;;;;;;7203363;19;2004279;-85
2022/06/14 13:27:59;;;;;;;1.98;1.20;;;26.00;57.60;;;;;;7306576;19;2005051;-85
2022/06/14 13:30:24;;;;;;;0.88;0.88;;;25.10;59.00;;;;;;7291635;19;2004370;-83
2022/06/14 13:33:12;;;;;;;3.15;1.10;;;25.40;60.10;;;;;;7391482;19;20309;-88
2022/06/14 13:35:55;;;;;;;2.10;1.05;;;26.20;60.50;;;;;;7395907;19;20312;-82
2022/06/14 13:38:41;;;;;;;1.27;1.00;;;26.40;58.80;;;;;;7284973;19;2006127;-79
2022/06/14 13:41:18;;;;;;;1.05;0.98;;;26.40;57.50;;;;;;7382222;19;20324;-81
2022/06/14 13:43:51;;;;;;;2.35;1.10;;;26.70;59.10;;;;;;7360179;19;20630;-80
2022/06/14 13:46:22;;;;;;;1.30;1.07;;;26.60;58.90;;;;;;7279527;19;2004236;-86
2022/06/14 13:49:02;;;;;;;1.63;1.00;;;26.80;57.50;;;;;;7382462;19;20316;-80